Time,TemperatureF,DewpointF,PressureIn,WindDirection,WindDirectionDegrees,WindSpeedMPH,WindSpeedGustMPH,Humidity,HourlyPrecipIn,Conditions,Clouds,dailyrainin,SolarRadiationWatts/m^2,SoftwareType,DateUTC
2013-01-09 00:02:00,28.0,28.0,-100.00,WSW,256,5.0,13.0,99,0.00,,,0.00,0.000000,,2013-01-09 06:02:00,
2013-01-09 00:12:00,28.0,28.0,-100.00,WSW,256,5.0,13.0,99,0.00,,,0.00,0.000000,,2013-01-09 06:12:00,
2013-01-09 00:32:00,28.0,28.0,-100.00,SSW,210,3.0,16.0,99,0.00,,,0.00,0.000000,,2013-01-09 06:32:00,
2013-01-09 00:42:00,28.0,28.0,-100.00,SSW,210,3.0,16.0,99,0.00,,,0.00,0.000000,,2013-01-09 06:42:00,
2013-01-09 00:52:00,28.0,28.0,-100.00,SSW,210,3.0,16.0,99,0.00,,,0.00,0.000000,,2013-01-09 06:52:00,
2013-01-09 01:02:00,28.0,28.0,-100.00,SSW,210,3.0,16.0,99,0.00,,,0.00,0.000000,,2013-01-09 07:02:00,
2013-01-09 01:12:00,28.0,28.0,-100.00,SSW,210,3.0,16.0,99,0.00,,,0.00,0.000000,,2013-01-09 07:12:00,
2013-01-09 01:32:00,28.0,28.0,-100.00,SW,236,4.0,9.0,98,0.00,,,0.00,0.000000,,2013-01-09 07:32:00,
2013-01-09 01:42:00,28.0,28.0,-100.00,SW,236,4.0,9.0,98,0.00,,,0.00,0.000000,,2013-01-09 07:42:00,
2013-01-09 01:52:00,28.0,28.0,-100.00,SW,236,4.0,9.0,98,0.00,,,0.00,0.000000,,2013-01-09 07:52:00,
2013-01-09 02:02:00,28.0,28.0,-100.00,SW,236,4.0,9.0,98,0.00,,,0.00,0.000000,,2013-01-09 08:02:00,
2013-01-09 02:12:00,28.0,28.0,-100.00,SW,236,4.0,9.0,98,0.00,,,0.00,0.000000,,2013-01-09 08:12:00,
2013-01-09 02:32:00,28.0,27.0,-100.00,West,261,6.0,15.0,96,0.00,,,0.00,1.000000,,2013-01-09 08:32:00,
2013-01-09 02:43:00,28.0,27.0,-100.00,West,261,6.0,15.0,96,0.00,,,0.00,1.000000,,2013-01-09 08:43:00,
2013-01-09 02:53:00,28.0,27.0,-100.00,West,261,6.0,15.0,96,0.00,,,0.00,1.000000,,2013-01-09 08:53:00,
2013-01-09 03:02:00,28.0,27.0,-100.00,West,261,6.0,15.0,96,0.00,,,0.00,1.000000,,2013-01-09 09:02:00,
2013-01-09 03:12:00,28.0,27.0,-100.00,West,261,6.0,15.0,96,0.00,,,0.00,1.000000,,2013-01-09 09:12:00,
2013-01-09 03:32:00,28.0,27.0,-100.00,WSW,253,4.0,12.0,95,0.00,,,0.00,1.000000,,2013-01-09 09:32:00,
2013-01-09 03:42:00,28.0,27.0,-100.00,WSW,253,4.0,12.0,95,0.00,,,0.00,1.000000,,2013-01-09 09:42:00,
2013-01-09 03:53:00,28.0,27.0,-100.00,WSW,253,4.0,12.0,95,0.00,,,0.00,1.000000,,2013-01-09 09:53:00,
2013-01-09 04:02:00,28.0,27.0,-100.00,WSW,253,4.0,12.0,95,0.00,,,0.00,1.000000,,2013-01-09 10:02:00,
2013-01-09 04:12:00,28.0,27.0,-100.00,WSW,253,4.0,12.0,95,0.00,,,0.00,1.000000,,2013-01-09 10:12:00,
2013-01-09 04:32:00,27.0,25.0,-100.00,West,266,5.0,13.0,93,0.00,,,0.00,0.000000,,2013-01-09 10:32:00,
2013-01-09 04:42:00,27.0,25.0,-100.00,West,266,5.0,13.0,93,0.00,,,0.00,0.000000,,2013-01-09 10:42:00,
2013-01-09 04:52:00,27.0,25.0,-100.00,West,266,5.0,13.0,93,0.00,,,0.00,0.000000,,2013-01-09 10:52:00,
2013-01-09 05:02:00,27.0,25.0,-100.00,West,266,5.0,13.0,93,0.00,,,0.00,0.000000,,2013-01-09 11:02:00,
2013-01-09 05:12:00,27.0,25.0,-100.00,West,266,5.0,13.0,93,0.00,,,0.00,0.000000,,2013-01-09 11:12:00,
2013-01-09 05:33:00,27.0,26.0,-100.00,WSW,248,5.0,14.0,96,0.00,,,0.00,0.000000,,2013-01-09 11:33:00,
2013-01-09 05:43:00,27.0,26.0,-100.00,WSW,248,5.0,14.0,96,0.00,,,0.00,0.000000,,2013-01-09 11:43:00,
2013-01-09 05:53:00,27.0,26.0,-100.00,WSW,248,5.0,14.0,96,0.00,,,0.00,0.000000,,2013-01-09 11:53:00,
2013-01-09 06:03:00,27.0,26.0,-100.00,WSW,248,5.0,14.0,96,0.00,,,0.00,0.000000,,2013-01-09 12:03:00,
2013-01-09 06:12:00,27.0,26.0,-100.00,WSW,248,5.0,14.0,96,0.00,,,0.00,0.000000,,2013-01-09 12:12:00,
2013-01-09 06:33:00,25.0,22.0,-100.00,WNW,285,13.0,27.0,87,0.00,,,0.00,0.000000,,2013-01-09 12:33:00,
2013-01-09 06:43:00,25.0,22.0,-100.00,WNW,285,13.0,27.0,87,0.00,,,0.00,0.000000,,2013-01-09 12:43:00,
2013-01-09 06:53:00,25.0,22.0,-100.00,WNW,285,13.0,27.0,87,0.00,,,0.00,0.000000,,2013-01-09 12:53:00,
2013-01-09 07:03:00,25.0,22.0,-100.00,WNW,285,13.0,27.0,87,0.00,,,0.00,0.000000,,2013-01-09 13:03:00,
2013-01-09 07:12:00,25.0,22.0,-100.00,WNW,285,13.0,27.0,87,0.00,,,0.00,0.000000,,2013-01-09 13:12:00,
2013-01-09 07:33:00,24.0,23.0,-100.00,West,280,9.0,26.0,94,0.00,,,0.00,0.000000,,2013-01-09 13:33:00,
2013-01-09 07:43:00,24.0,23.0,-100.00,West,280,9.0,26.0,94,0.00,,,0.00,0.000000,,2013-01-09 13:43:00,
2013-01-09 07:53:00,24.0,23.0,-100.00,West,280,9.0,26.0,94,0.00,,,0.00,0.000000,,2013-01-09 13:53:00,
2013-01-09 08:03:00,24.0,23.0,-100.00,West,280,9.0,26.0,94,0.00,,,0.00,0.000000,,2013-01-09 14:03:00,
2013-01-09 08:12:00,24.0,23.0,-100.00,West,280,9.0,26.0,94,0.00,,,0.00,0.000000,,2013-01-09 14:12:00,
2013-01-09 08:33:00,24.0,21.0,-100.00,WNW,298,16.0,32.0,88,0.00,,,0.00,2.000000,,2013-01-09 14:33:00,
2013-01-09 08:43:00,24.0,21.0,-100.00,WNW,298,16.0,32.0,88,0.00,,,0.00,2.000000,,2013-01-09 14:43:00,
2013-01-09 08:53:00,24.0,21.0,-100.00,WNW,298,16.0,32.0,88,0.00,,,0.00,2.000000,,2013-01-09 14:53:00,
2013-01-09 09:03:00,24.0,21.0,-100.00,WNW,298,16.0,32.0,88,0.00,,,0.00,2.000000,,2013-01-09 15:03:00,
2013-01-09 09:12:00,24.0,21.0,-100.00,WNW,298,16.0,32.0,88,0.00,,,0.00,2.000000,,2013-01-09 15:12:00,
2013-01-09 09:33:00,24.0,21.0,-100.00,WNW,292,15.0,32.0,88,0.00,,,0.00,9.000000,,2013-01-09 15:33:00,
2013-01-09 09:43:00,24.0,21.0,-100.00,WNW,292,15.0,32.0,88,0.00,,,0.00,9.000000,,2013-01-09 15:43:00,
2013-01-09 09:53:00,24.0,21.0,-100.00,WNW,292,15.0,32.0,88,0.00,,,0.00,9.000000,,2013-01-09 15:53:00,
2013-01-09 10:03:00,24.0,21.0,-100.00,WNW,292,15.0,32.0,88,0.00,,,0.00,9.000000,,2013-01-09 16:03:00,
2013-01-09 10:12:00,24.0,21.0,-100.00,WNW,292,15.0,32.0,88,0.00,,,0.00,9.000000,,2013-01-09 16:12:00,
2013-01-09 10:34:00,25.0,22.0,-100.00,WNW,290,14.0,31.0,87,0.00,,,0.00,21.000000,,2013-01-09 16:34:00,
2013-01-09 10:43:00,25.0,22.0,-100.00,WNW,290,14.0,31.0,87,0.00,,,0.00,21.000000,,2013-01-09 16:43:00,
2013-01-09 10:53:00,25.0,22.0,-100.00,WNW,290,14.0,31.0,87,0.00,,,0.00,21.000000,,2013-01-09 16:53:00,
2013-01-09 11:03:00,25.0,22.0,-100.00,WNW,290,14.0,31.0,87,0.00,,,0.00,21.000000,,2013-01-09 17:03:00,
2013-01-09 11:12:00,25.0,22.0,-100.00,WNW,290,14.0,31.0,87,0.00,,,0.00,21.000000,,2013-01-09 17:12:00,
2013-01-09 11:43:00,25.0,21.0,-100.00,WNW,300,13.0,26.0,86,0.00,,,0.00,41.000000,,2013-01-09 17:43:00,
2013-01-09 11:53:00,25.0,21.0,-100.00,WNW,300,13.0,26.0,86,0.00,,,0.00,41.000000,,2013-01-09 17:53:00,
2013-01-09 12:03:00,25.0,21.0,-100.00,WNW,300,13.0,26.0,86,0.00,,,0.00,41.000000,,2013-01-09 18:03:00,
2013-01-09 12:12:00,25.0,21.0,-100.00,WNW,300,13.0,26.0,86,0.00,,,0.00,41.000000,,2013-01-09 18:12:00,
2013-01-09 12:33:00,25.0,21.0,-100.00,WNW,300,13.0,25.0,84,0.00,,,0.00,55.000000,,2013-01-09 18:33:00,
2013-01-09 12:43:00,25.0,21.0,-100.00,WNW,300,13.0,25.0,84,0.00,,,0.00,55.000000,,2013-01-09 18:43:00,
2013-01-09 12:53:00,25.0,21.0,-100.00,WNW,300,13.0,25.0,84,0.00,,,0.00,55.000000,,2013-01-09 18:53:00,
2013-01-09 13:03:00,25.0,21.0,-100.00,WNW,300,13.0,25.0,84,0.00,,,0.00,55.000000,,2013-01-09 19:03:00,
2013-01-09 13:12:00,25.0,21.0,-100.00,WNW,300,13.0,25.0,84,0.00,,,0.00,55.000000,,2013-01-09 19:12:00,
2013-01-09 14:43:00,25.0,21.0,-100.00,WNW,294,13.0,23.0,84,-99.99,,,-99.99,57.000000,,2013-01-09 20:43:00,
2013-01-09 14:53:00,25.0,21.0,-100.00,WNW,294,13.0,23.0,84,-99.99,,,-99.99,57.000000,,2013-01-09 20:53:00,
2013-01-09 15:03:00,25.0,21.0,-100.00,WNW,294,13.0,23.0,84,-99.99,,,-99.99,57.000000,,2013-01-09 21:03:00,
2013-01-09 15:12:00,25.0,21.0,-100.00,WNW,294,13.0,23.0,84,-99.99,,,-99.99,57.000000,,2013-01-09 21:12:00,
2013-01-09 15:33:00,25.0,20.0,-100.00,WNW,291,11.0,22.0,82,0.00,,,0.00,44.000000,,2013-01-09 21:33:00,
2013-01-09 15:43:00,25.0,20.0,-100.00,WNW,291,11.0,22.0,82,0.00,,,0.00,44.000000,,2013-01-09 21:43:00,
2013-01-09 15:53:00,25.0,20.0,-100.00,WNW,291,11.0,22.0,82,0.00,,,0.00,44.000000,,2013-01-09 21:53:00,
2013-01-09 16:03:00,25.0,20.0,-100.00,WNW,291,11.0,22.0,82,0.00,,,0.00,44.000000,,2013-01-09 22:03:00,
2013-01-09 16:12:00,25.0,20.0,-100.00,WNW,291,11.0,22.0,82,0.00,,,0.00,44.000000,,2013-01-09 22:12:00,
2013-01-09 16:13:00,24.0,20.0,-100.00,WNW,288,8.0,21.0,83,0.00,,,0.00,21.000000,,2013-01-09 22:13:00,
2013-01-09 16:43:00,24.0,20.0,-100.00,WNW,288,8.0,21.0,83,0.00,,,0.00,21.000000,,2013-01-09 22:43:00,
2013-01-09 16:52:00,24.0,20.0,-100.00,WNW,288,8.0,21.0,83,0.00,,,0.00,21.000000,,2013-01-09 22:52:00,
2013-01-09 17:02:00,24.0,20.0,-100.00,WNW,288,8.0,21.0,83,0.00,,,0.00,21.000000,,2013-01-09 23:02:00,
2013-01-09 17:33:00,23.0,19.0,-100.00,WNW,291,9.0,19.0,83,0.00,,,0.00,2.000000,,2013-01-09 23:33:00,
2013-01-09 17:43:00,23.0,19.0,-100.00,WNW,291,9.0,19.0,83,0.00,,,0.00,2.000000,,2013-01-09 23:43:00,
2013-01-09 17:53:00,23.0,19.0,-100.00,WNW,291,9.0,19.0,83,0.00,,,0.00,2.000000,,2013-01-09 23:53:00,
2013-01-09 18:03:00,23.0,19.0,-100.00,WNW,291,9.0,19.0,83,0.00,,,0.00,2.000000,,2013-01-10 00:03:00,
2013-01-09 18:12:00,23.0,19.0,-100.00,WNW,291,9.0,19.0,83,0.00,,,0.00,2.000000,,2013-01-10 00:12:00,
2013-01-09 18:33:00,23.0,19.0,-100.00,West,277,5.0,17.0,84,0.00,,,0.00,0.000000,,2013-01-10 00:33:00,
2013-01-09 18:43:00,23.0,19.0,-100.00,West,277,5.0,17.0,84,0.00,,,0.00,0.000000,,2013-01-10 00:43:00,
2013-01-09 18:53:00,23.0,19.0,-100.00,West,277,5.0,17.0,84,0.00,,,0.00,0.000000,,2013-01-10 00:53:00,
2013-01-09 19:02:00,23.0,19.0,-100.00,West,277,5.0,17.0,84,0.00,,,0.00,0.000000,,2013-01-10 01:02:00,
2013-01-09 19:12:00,23.0,19.0,-100.00,West,277,5.0,17.0,84,0.00,,,0.00,0.000000,,2013-01-10 01:12:00,
2013-01-09 19:33:00,22.0,17.0,-100.00,West,279,6.0,12.0,81,0.00,,,0.00,0.000000,,2013-01-10 01:33:00,
2013-01-09 19:43:00,22.0,17.0,-100.00,West,279,6.0,12.0,81,0.00,,,0.00,0.000000,,2013-01-10 01:43:00,
2013-01-09 19:53:00,22.0,17.0,-100.00,West,279,6.0,12.0,81,0.00,,,0.00,0.000000,,2013-01-10 01:53:00,
2013-01-09 20:03:00,22.0,17.0,-100.00,West,279,6.0,12.0,81,0.00,,,0.00,0.000000,,2013-01-10 02:03:00,
2013-01-09 20:12:00,22.0,17.0,-100.00,West,279,6.0,12.0,81,0.00,,,0.00,0.000000,,2013-01-10 02:12:00,
2013-01-09 21:03:00,22.0,18.0,-100.00,West,274,3.0,10.0,83,0.00,,,0.00,1.000000,,2013-01-10 03:03:00,
2013-01-09 21:12:00,22.0,18.0,-100.00,West,274,3.0,10.0,83,0.00,,,0.00,1.000000,,2013-01-10 03:12:00,
2013-01-09 21:33:00,18.0,16.0,-100.00,South,191,1.0,6.0,91,0.00,,,0.00,0.000000,,2013-01-10 03:33:00,
2013-01-09 21:43:00,18.0,16.0,-100.00,South,191,1.0,6.0,91,0.00,,,0.00,0.000000,,2013-01-10 03:43:00,
2013-01-09 21:53:00,18.0,16.0,-100.00,South,191,1.0,6.0,91,0.00,,,0.00,0.000000,,2013-01-10 03:53:00,
2013-01-09 22:02:00,18.0,16.0,-100.00,South,191,1.0,6.0,91,0.00,,,0.00,0.000000,,2013-01-10 04:02:00,
2013-01-09 22:12:00,18.0,16.0,-100.00,South,191,1.0,6.0,91,0.00,,,0.00,0.000000,,2013-01-10 04:12:00,
2013-01-09 22:32:00,20.0,17.0,-100.00,SE,131,3.0,5.0,87,0.00,,,0.00,0.000000,,2013-01-10 04:32:00,
2013-01-09 22:43:00,20.0,17.0,-100.00,SE,131,3.0,5.0,87,0.00,,,0.00,0.000000,,2013-01-10 04:43:00,
2013-01-09 22:52:00,20.0,17.0,-100.00,SE,131,3.0,5.0,87,0.00,,,0.00,0.000000,,2013-01-10 04:52:00,
2013-01-09 23:03:00,20.0,17.0,-100.00,SE,131,3.0,5.0,87,0.00,,,0.00,0.000000,,2013-01-10 05:03:00,
2013-01-09 23:12:00,20.0,17.0,-100.00,SE,131,3.0,5.0,87,0.00,,,0.00,0.000000,,2013-01-10 05:12:00,
2013-01-09 23:33:00,20.0,17.0,-100.00,SE,132,5.0,7.0,88,0.00,,,0.00,0.000000,,2013-01-10 05:33:00,
2013-01-09 23:43:00,20.0,17.0,-100.00,SE,132,5.0,7.0,88,0.00,,,0.00,0.000000,,2013-01-10 05:43:00,
2013-01-09 23:53:00,20.0,17.0,-100.00,SE,132,5.0,7.0,88,0.00,,,0.00,0.000000,,2013-01-10 05:53:00,